Time;durP1;ratioP1;P1;durP2;ratioP2;P2;SDS_P1;SDS_P2;PMS_P1;PMS_P2;Temp;Humidity;BMP_temperature;BMP_pressure;BME280_temperature;BME280_humidity;BME280_pressure;Samples;Min_cycle;Max_cycle;Signal;HPM_P1;HPM_P2
2023/05/30 00:01:44;;;;;;;5.95;3.50;;;;;;;;;;4992922;28;20122;-78
2023/05/30 00:04:11;;;;;;;7.13;3.60;;;;;;;;;;4986619;28;20043;-79
2023/05/30 00:06:37;;;;;;;5.80;3.55;;;;;;;;;;4997791;28;20051;-78
2023/05/30 00:09:05;;;;;;;6.47;3.22;;;;;;;;;;4996966;28;20057;-78
2023/05/30 00:11:32;;;;;;;6.07;3.25;;;;;;;;;;5000309;28;20082;-77
2023/05/30 00:13:59;;;;;;;5.22;3.20;;;;;;;;;;4994415;28;20054;-78
2023/05/30 00:16:27;;;;;;;6.72;3.45;;;;;;;;;;4992865;22;20057;-78
2023/05/30 00:18:54;;;;;;;6.28;3.63;;;;;;;;;;4974881;28;20058;-76
2023/05/30 00:21:20;;;;;;;6.60;3.65;;;;;;;;;;4975010;28;20466;-76
2023/05/30 00:23:47;;;;;;;5.90;3.65;;;;;;;;;;4992201;28;20463;-77
2023/05/30 00:26:16;;;;;;;6.65;3.60;;;;;;;;;;4994632;28;20046;-80
2023/05/30 00:28:43;;;;;;;6.78;3.40;;;;;;;;;;4994760;28;20065;-77
2023/05/30 00:31:10;;;;;;;6.28;3.50;;;;;;;;;;4995051;28;20429;-77
2023/05/30 00:33:36;;;;;;;6.05;3.58;;;;;;;;;;4994006;28;20125;-77
2023/05/30 00:36:03;;;;;;;7.15;3.63;;;;;;;;;;4977791;28;20156;-77
2023/05/30 00:38:30;;;;;;;6.18;3.45;;;;;;;;;;4974145;28;20399;-76
2023/05/30 00:40:56;;;;;;;6.53;3.70;;;;;;;;;;4974891;28;20053;-77
2023/05/30 00:43:24;;;;;;;5.85;3.25;;;;;;;;;;4975503;28;20053;-77
2023/05/30 00:45:54;;;;;;;5.85;3.92;;;;;;;;;;4983602;28;20043;-77
2023/05/30 00:48:21;;;;;;;5.85;3.50;;;;;;;;;;4974879;28;20078;-76
2023/05/30 00:50:48;;;;;;;7.13;3.47;;;;;;;;;;4974530;28;20047;-77
2023/05/30 00:53:16;;;;;;;6.63;3.60;;;;;;;;;;4974658;28;20055;-77
2023/05/30 00:55:43;;;;;;;5.10;3.38;;;;;;;;;;4980564;28;20053;-77
2023/05/30 00:58:11;;;;;;;6.72;3.22;;;;;;;;;;4993991;28;20093;-77
2023/05/30 01:00:39;;;;;;;7.45;3.55;;;;;;;;;;4993623;28;20054;-76
2023/05/30 01:03:08;;;;;;;6.30;3.70;;;;;;;;;;4985034;28;20049;-77
2023/05/30 01:05:35;;;;;;;5.80;3.97;;;;;;;;;;4975525;28;20043;-78
2023/05/30 01:08:01;;;;;;;6.15;3.42;;;;;;;;;;4974686;28;20139;-77
2023/05/30 01:10:32;;;;;;;5.90;3.55;;;;;;;;;;4974033;28;20125;-77
2023/05/30 01:13:09;;;;;;;8.05;4.20;;;;;;;;;;4974899;28;20489;-77
2023/05/30 01:15:41;;;;;;;6.88;3.88;;;;;;;;;;4985556;28;20088;-77
2023/05/30 01:18:12;;;;;;;7.90;3.90;;;;;;;;;;4983693;28;20158;-76
2023/05/30 01:20:41;;;;;;;7.93;4.50;;;;;;;;;;4981091;28;20130;-76
2023/05/30 01:23:20;;;;;;;9.50;3.72;;;;;;;;;;4974941;28;20053;-77
2023/05/30 01:26:00;;;;;;;6.80;3.50;;;;;;;;;;4973885;28;20051;-76
2023/05/30 01:28:33;;;;;;;6.40;3.80;;;;;;;;;;4990959;28;20501;-77
2023/05/30 01:31:01;;;;;;;5.57;3.28;;;;;;;;;;4994553;28;20046;-75
2023/05/30 01:33:29;;;;;;;7.18;3.83;;;;;;;;;;4995261;28;20088;-77
2023/05/30 01:35:55;;;;;;;6.93;3.60;;;;;;;;;;4995257;28;20125;-76
2023/05/30 01:38:22;;;;;;;6.80;4.15;;;;;;;;;;4992639;28;20058;-76
2023/05/30 01:40:51;;;;;;;6.25;3.65;;;;;;;;;;4993076;28;20050;-77
2023/05/30 01:43:33;;;;;;;5.38;3.35;;;;;;;;;;4993328;28;20049;-77
2023/05/30 01:46:06;;;;;;;8.35;3.78;;;;;;;;;;4993738;28;20054;-77
2023/05/30 01:48:40;;;;;;;6.20;3.83;;;;;;;;;;4974618;28;20054;-77
2023/05/30 01:51:13;;;;;;;5.35;3.50;;;;;;;;;;4973962;28;20059;-77
2023/05/30 01:53:44;;;;;;;5.70;3.40;;;;;;;;;;4990273;28;20516;-77
2023/05/30 01:56:14;;;;;;;6.03;3.58;;;;;;;;;;4994264;28;20046;-77
2023/05/30 01:58:41;;;;;;;;;;;;;;;;;;4988331;28;20081;-77
2023/05/30 02:01:10;;;;;;;6.38;3.60;;;;;;;;;;4998467;28;19928;-77
2023/05/30 02:03:37;;;;;;;5.68;3.83;;;;;;;;;;4984580;28;20047;-76
2023/05/30 02:06:04;;;;;;;6.03;3.42;;;;;;;;;;4976790;28;20046;-78
2023/05/30 02:08:31;;;;;;;6.18;3.30;;;;;;;;;;4994964;28;20086;-77
2023/05/30 02:10:57;;;;;;;5.40;3.20;;;;;;;;;;4988321;28;20047;-76
2023/05/30 02:13:24;;;;;;;8.75;3.25;;;;;;;;;;4984191;28;20466;-77
2023/05/30 02:15:51;;;;;;;5.88;3.17;;;;;;;;;;4980481;28;20512;-76
2023/05/30 02:18:19;;;;;;;6.38;3.22;;;;;;;;;;4989618;28;20502;-77
2023/05/30 02:20:46;;;;;;;6.57;3.30;;;;;;;;;;4995107;28;20068;-76
2023/05/30 02:23:12;;;;;;;5.28;2.90;;;;;;;;;;4987975;28;20046;-75
2023/05/30 02:25:39;;;;;;;5.68;2.88;;;;;;;;;;4995181;28;20061;-77
2023/05/30 02:28:06;;;;;;;8.88;3.30;;;;;;;;;;4990668;28;20057;-76
2023/05/30 02:30:32;;;;;;;5.47;3.28;;;;;;;;;;4976290;28;20082;-77
2023/05/30 02:32:59;;;;;;;5.55;3.15;;;;;;;;;;4977752;28;20588;-77
2023/05/30 02:35:27;;;;;;;7.85;3.85;;;;;;;;;;4976531;28;20054;-77
2023/05/30 02:37:54;;;;;;;5.57;3.33;;;;;;;;;;4977627;28;20133;-77
2023/05/30 02:40:20;;;;;;;4.60;3.20;;;;;;;;;;4989841;28;20050;-76
2023/05/30 02:42:47;;;;;;;6.28;3.40;;;;;;;;;;4994980;28;20137;-76
2023/05/30 02:45:13;;;;;;;5.53;3.42;;;;;;;;;;4996132;28;20163;-77
2023/05/30 02:47:40;;;;;;;6.13;3.33;;;;;;;;;;4997208;28;20110;-76
2023/05/30 02:50:08;;;;;;;5.80;3.20;;;;;;;;;;4990396;28;20293;-77
2023/05/30 02:52:36;;;;;;;5.95;3.00;;;;;;;;;;4976177;28;20520;-76
2023/05/30 02:55:03;;;;;;;6.18;3.17;;;;;;;;;;4977276;28;20051;-76
2023/05/30 02:57:30;;;;;;;7.45;4.13;;;;;;;;;;4977051;28;20047;-77
2023/05/30 02:59:57;;;;;;;5.82;3.08;;;;;;;;;;4985807;28;20130;-76
2023/05/30 03:02:23;;;;;;;6.85;3.30;;;;;;;;;;4975533;28;20047;-77
2023/05/30 03:04:50;;;;;;;6.20;3.60;;;;;;;;;;4958961;29;20051;-76
2023/05/30 03:07:17;;;;;;;5.72;2.85;;;;;;;;;;4954577;28;20137;-77
2023/05/30 03:09:45;;;;;;;7.53;3.20;;;;;;;;;;4960726;28;20122;-77
2023/05/30 03:12:12;;;;;;;7.43;3.08;;;;;;;;;;4984981;28;20133;-77
2023/05/30 03:14:39;;;;;;;5.93;3.22;;;;;;;;;;4985187;28;20054;-76
2023/05/30 03:17:06;;;;;;;4.70;2.95;;;;;;;;;;4995593;28;20050;-77
2023/05/30 03:19:33;;;;;;;6.05;2.85;;;;;;;;;;4995712;28;20046;-77
2023/05/30 03:22:00;;;;;;;6.25;3.25;;;;;;;;;;4984709;28;20056;-77
2023/05/30 03:24:26;;;;;;;6.32;2.83;;;;;;;;;;4976357;28;20051;-77
2023/05/30 03:26:54;;;;;;;7.35;3.13;;;;;;;;;;4978565;28;20053;-75
2023/05/30 03:29:21;;;;;;;5.88;3.13;;;;;;;;;;4977040;28;20051;-76
2023/05/30 03:31:48;;;;;;;5.65;2.90;;;;;;;;;;4987741;28;20081;-77
2023/05/30 03:34:14;;;;;;;5.30;3.05;;;;;;;;;;4981529;28;20051;-77
2023/05/30 03:36:41;;;;;;;7.40;3.20;;;;;;;;;;4977929;28;20134;-77
2023/05/30 03:39:08;;;;;;;6.10;3.08;;;;;;;;;;4979279;28;20051;-77
2023/05/30 03:41:34;;;;;;;5.78;3.20;;;;;;;;;;4989011;28;20061;-76
2023/05/30 03:44:02;;;;;;;5.22;3.00;;;;;;;;;;4977152;28;20133;-77
2023/05/30 03:46:29;;;;;;;5.95;2.80;;;;;;;;;;4977064;28;20078;-77
2023/05/30 03:48:56;;;;;;;6.78;3.22;;;;;;;;;;4977894;28;20055;-78
2023/05/30 03:51:22;;;;;;;7.50;3.25;;;;;;;;;;4982036;28;20042;-77
2023/05/30 03:53:49;;;;;;;5.22;3.10;;;;;;;;;;4995219;28;20129;-78
2023/05/30 03:56:15;;;;;;;5.32;2.90;;;;;;;;;;4978912;28;20051;-77
2023/05/30 03:58:42;;;;;;;5.50;3.08;;;;;;;;;;4975604;28;20500;-78
2023/05/30 04:01:10;;;;;;;6.15;3.22;;;;;;;;;;4975533;28;20130;-78
2023/05/30 04:03:38;;;;;;;7.97;3.30;;;;;;;;;;4962664;28;20054;-77
2023/05/30 04:06:06;;;;;;;6.75;3.17;;;;;;;;;;4956222;29;20395;-77
2023/05/30 04:08:32;;;;;;;5.10;2.85;;;;;;;;;;4955977;29;20459;-77
2023/05/30 04:10:59;;;;;;;7.03;3.08;;;;;;;;;;4955909;29;20043;-78
2023/05/30 04:13:26;;;;;;;5.82;3.00;;;;;;;;;;4967575;28;20094;-77
2023/05/30 04:15:52;;;;;;;6.88;3.38;;;;;;;;;;4975133;28;20082;-77
2023/05/30 04:18:21;;;;;;;5.13;3.13;;;;;;;;;;4975120;28;20050;-76
2023/05/30 04:20:47;;;;;;;6.68;3.17;;;;;;;;;;4974792;28;20050;-77
2023/05/30 04:23:14;;;;;;;6.85;3.42;;;;;;;;;;4974941;28;20047;-77
2023/05/30 04:25:44;;;;;;;5.95;3.13;;;;;;;;;;4975415;28;20055;-76
2023/05/30 04:28:12;;;;;;;6.13;3.33;;;;;;;;;;4974712;28;20051;-77
2023/05/30 04:30:40;;;;;;;8.05;3.58;;;;;;;;;;4974744;28;20442;-77
2023/05/30 04:33:07;;;;;;;6.13;3.08;;;;;;;;;;4975228;28;20053;-77
2023/05/30 04:35:36;;;;;;;5.78;3.22;;;;;;;;;;4975407;28;20167;-78
2023/05/30 04:38:03;;;;;;;6.20;3.40;;;;;;;;;;4975283;28;20110;-77
2023/05/30 04:40:29;;;;;;;6.72;3.40;;;;;;;;;;4987673;28;20129;-77
2023/05/30 04:43:00;;;;;;;5.78;3.15;;;;;;;;;;4994031;28;20217;-77
2023/05/30 04:45:28;;;;;;;;;;;;;;;;;;4995232;28;20124;-77
2023/05/30 04:47:55;;;;;;;6.78;3.05;;;;;;;;;;4994023;28;19922;-78
2023/05/30 04:50:24;;;;;;;5.78;3.28;;;;;;;;;;4994010;28;20046;-77
2023/05/30 04:52:52;;;;;;;5.22;3.10;;;;;;;;;;4992000;28;20034;-77
2023/05/30 04:55:19;;;;;;;6.55;3.13;;;;;;;;;;4974249;28;20054;-76
2023/05/30 04:57:45;;;;;;;5.97;3.75;;;;;;;;;;4974511;28;20047;-77
2023/05/30 05:00:13;;;;;;;6.88;3.53;;;;;;;;;;4974664;28;20139;-77
2023/05/30 05:02:40;;;;;;;7.53;3.70;;;;;;;;;;4989516;28;20472;-77
2023/05/30 05:05:07;;;;;;;5.82;3.17;;;;;;;;;;4993820;28;20561;-79
2023/05/30 05:07:34;;;;;;;5.72;3.33;;;;;;;;;;4993832;28;20531;-79
2023/05/30 05:10:02;;;;;;;6.25;3.60;;;;;;;;;;4978467;28;20042;-77
2023/05/30 05:12:29;;;;;;;6.78;3.60;;;;;;;;;;4974490;28;20466;-77
2023/05/30 05:14:57;;;;;;;7.10;4.13;;;;;;;;;;4974061;28;20053;-77
2023/05/30 05:17:24;;;;;;;8.25;3.30;;;;;;;;;;4974369;28;20061;-76
2023/05/30 05:19:50;;;;;;;6.07;3.50;;;;;;;;;;4973900;28;20569;-77
2023/05/30 05:22:17;;;;;;;6.78;3.28;;;;;;;;;;4974095;28;20542;-77
2023/05/30 05:24:44;;;;;;;7.35;3.53;;;;;;;;;;4974199;28;20138;-76
2023/05/30 05:27:12;;;;;;;5.95;3.30;;;;;;;;;;4974611;28;20422;-77
2023/05/30 05:29:39;;;;;;;6.93;3.65;;;;;;;;;;4974153;28;20050;-77
2023/05/30 05:32:06;;;;;;;5.90;3.38;;;;;;;;;;4973279;28;20058;-76
2023/05/30 05:34:33;;;;;;;6.95;3.50;;;;;;;;;;4973914;28;20082;-77
2023/05/30 05:37:00;;;;;;;7.55;4.32;;;;;;;;;;4973655;28;20145;-76
2023/05/30 05:39:26;;;;;;;7.20;3.88;;;;;;;;;;4973636;28;20043;-77
2023/05/30 05:41:53;;;;;;;6.63;3.60;;;;;;;;;;4973806;28;20057;-77
2023/05/30 05:44:21;;;;;;;7.88;4.20;;;;;;;;;;4973681;28;20085;-77
2023/05/30 05:46:47;;;;;;;7.10;3.72;;;;;;;;;;4973499;28;20047;-78
2023/05/30 05:49:14;;;;;;;6.95;3.50;;;;;;;;;;4973732;28;20425;-78
2023/05/30 05:51:41;;;;;;;6.65;3.70;;;;;;;;;;4973916;28;20109;-78
2023/05/30 05:54:07;;;;;;;7.80;3.85;;;;;;;;;;4973712;28;20145;-76
2023/05/30 05:56:34;;;;;;;8.65;3.78;;;;;;;;;;4973935;28;20134;-77
2023/05/30 05:59:00;;;;;;;9.80;3.67;;;;;;;;;;4973494;28;20129;-77
2023/05/30 06:01:28;;;;;;;8.88;3.75;;;;;;;;;;4973940;28;20110;-78
2023/05/30 06:03:55;;;;;;;6.72;3.80;;;;;;;;;;4958300;28;20053;-77
2023/05/30 06:06:21;;;;;;;7.88;3.85;;;;;;;;;;4954591;29;20054;-77
2023/05/30 06:08:48;;;;;;;6.97;4.00;;;;;;;;;;4969063;28;20242;-76
2023/05/30 06:11:15;;;;;;;8.48;4.68;;;;;;;;;;4973979;28;20054;-77
2023/05/30 06:13:41;;;;;;;8.10;4.22;;;;;;;;;;4983030;28;20042;-77
2023/05/30 06:16:08;;;;;;;6.75;4.15;;;;;;;;;;5008780;28;20030;-77
2023/05/30 06:18:36;;;;;;;9.07;4.13;;;;;;;;;;5017157;28;20054;-77
2023/05/30 06:21:04;;;;;;;6.13;3.75;;;;;;;;;;5017493;28;20052;-76
2023/05/30 06:23:30;;;;;;;6.70;3.67;;;;;;;;;;5016373;28;20049;-76
2023/05/30 06:25:57;;;;;;;6.70;3.70;;;;;;;;;;4997091;28;20046;-76
2023/05/30 06:28:24;;;;;;;6.28;4.00;;;;;;;;;;4993207;28;20465;-77
2023/05/30 06:30:50;;;;;;;7.82;3.75;;;;;;;;;;4994371;28;20054;-77
2023/05/30 06:33:17;;;;;;;6.78;3.80;;;;;;;;;;4993515;28;20047;-77
2023/05/30 06:35:45;;;;;;;7.70;3.92;;;;;;;;;;4991792;28;20101;-76
2023/05/30 06:38:12;;;;;;;9.63;4.60;;;;;;;;;;4992811;28;20482;-77
2023/05/30 06:40:39;;;;;;;7.88;3.75;;;;;;;;;;4992969;28;20065;-77
2023/05/30 06:43:06;;;;;;;10.77;4.38;;;;;;;;;;4994214;28;20081;-77
2023/05/30 06:45:33;;;;;;;7.03;4.05;;;;;;;;;;4997011;28;20078;-77
2023/05/30 06:48:01;;;;;;;6.82;3.63;;;;;;;;;;4996291;28;20050;-77
2023/05/30 06:50:28;;;;;;;8.45;3.72;;;;;;;;;;4996150;28;20128;-77
2023/05/30 06:52:56;;;;;;;7.53;3.97;;;;;;;;;;4996419;28;20156;-75
2023/05/30 06:55:22;;;;;;;6.28;3.45;;;;;;;;;;4996443;28;20057;-77
2023/05/30 06:57:54;;;;;;;6.63;3.63;;;;;;;;;;4996123;28;20129;-76
2023/05/30 07:00:21;;;;;;;8.95;3.90;;;;;;;;;;4995708;28;20046;-76
2023/05/30 07:02:48;;;;;;;6.78;4.20;;;;;;;;;;4989150;28;20512;-76
2023/05/30 07:05:15;;;;;;;7.30;4.03;;;;;;;;;;4976334;28;20160;-78
2023/05/30 07:07:42;;;;;;;6.95;3.80;;;;;;;;;;4994639;28;20074;-77
2023/05/30 07:10:11;;;;;;;7.43;3.97;;;;;;;;;;4996073;28;20082;-79
2023/05/30 07:12:38;;;;;;;6.60;3.80;;;;;;;;;;4985762;28;20046;-77
2023/05/30 07:15:06;;;;;;;6.13;4.18;;;;;;;;;;4976685;28;20109;-76
2023/05/30 07:17:33;;;;;;;7.68;4.10;;;;;;;;;;4976822;28;20058;-76
2023/05/30 07:20:00;;;;;;;6.85;3.88;;;;;;;;;;4977271;28;20046;-76
2023/05/30 07:22:26;;;;;;;7.80;4.57;;;;;;;;;;4978959;28;20070;-76
2023/05/30 07:24:53;;;;;;;7.28;3.92;;;;;;;;;;4993949;28;20517;-77
2023/05/30 07:27:21;;;;;;;8.35;4.60;;;;;;;;;;4994394;28;20125;-77
2023/05/30 07:29:48;;;;;;;7.82;4.22;;;;;;;;;;4994408;28;20138;-78
2023/05/30 07:32:14;;;;;;;6.97;4.03;;;;;;;;;;4976020;28;20292;-78
2023/05/30 07:34:41;;;;;;;8.00;4.22;;;;;;;;;;4974620;28;20057;-77
2023/05/30 07:37:08;;;;;;;8.20;4.75;;;;;;;;;;4974773;28;20071;-77
2023/05/30 07:39:35;;;;;;;8.52;4.38;;;;;;;;;;4974649;28;20057;-77
2023/05/30 07:42:02;;;;;;;7.03;4.45;;;;;;;;;;4975515;28;20061;-78
2023/05/30 07:44:30;;;;;;;7.47;3.88;;;;;;;;;;4974533;28;20051;-77
2023/05/30 07:46:57;;;;;;;6.68;3.47;;;;;;;;;;4974419;28;20047;-78
2023/05/30 07:49:23;;;;;;;6.93;4.30;;;;;;;;;;4974517;28;20081;-79
2023/05/30 07:51:50;;;;;;;7.55;4.47;;;;;;;;;;4976144;28;20062;-84
2023/05/30 07:54:17;;;;;;;7.50;3.75;;;;;;;;;;4977724;28;20077;-82
2023/05/30 07:56:44;;;;;;;6.70;3.80;;;;;;;;;;4979521;28;20051;-82
2023/05/30 07:59:11;;;;;;;6.18;3.53;;;;;;;;;;4983160;28;20081;-81
2023/05/30 08:01:38;;;;;;;7.10;4.30;;;;;;;;;;4999812;28;20046;-78
2023/05/30 08:04:05;;;;;;;6.25;3.95;;;;;;;;;;4993703;28;20127;-78
2023/05/30 08:06:33;;;;;;;8.15;4.80;;;;;;;;;;4993105;28;20651;-76
2023/05/30 08:09:00;;;;;;;10.55;3.90;;;;;;;;;;4993157;28;20047;-76
2023/05/30 08:11:27;;;;;;;9.18;4.53;;;;;;;;;;4993653;28;20138;-77
2023/05/30 08:13:53;;;;;;;7.03;4.15;;;;;;;;;;4993700;28;20129;-77
2023/05/30 08:16:20;;;;;;;6.18;4.20;;;;;;;;;;4993820;28;20537;-77
2023/05/30 08:18:48;;;;;;;8.30;4.88;;;;;;;;;;4993939;28;20046;-75
2023/05/30 08:21:15;;;;;;;7.25;4.35;;;;;;;;;;4994213;28;20050;-76
2023/05/30 08:23:42;;;;;;;7.28;3.88;;;;;;;;;;4992298;28;20058;-76
2023/05/30 08:26:08;;;;;;;8.40;4.40;;;;;;;;;;4993272;28;20086;-76
2023/05/30 08:28:35;;;;;;;6.25;4.47;;;;;;;;;;4992566;28;20062;-77
2023/05/30 08:31:03;;;;;;;6.88;4.20;;;;;;;;;;4992870;28;20050;-77
2023/05/30 08:33:29;;;;;;;6.95;4.53;;;;;;;;;;4992919;28;20513;-76
2023/05/30 08:35:57;;;;;;;6.75;4.07;;;;;;;;;;4992329;28;20084;-77
2023/05/30 08:38:24;;;;;;;6.13;4.22;;;;;;;;;;4991860;28;20056;-76
2023/05/30 08:40:53;;;;;;;8.45;4.38;;;;;;;;;;4992620;28;20489;-76
2023/05/30 08:43:19;;;;;;;8.05;4.85;;;;;;;;;;4992108;28;20502;-76
2023/05/30 08:45:47;;;;;;;8.27;4.35;;;;;;;;;;4991661;28;20149;-78
2023/05/30 08:48:17;;;;;;;7.40;3.90;;;;;;;;;;4992441;28;20559;-77
2023/05/30 08:50:44;;;;;;;5.97;3.67;;;;;;;;;;4991596;28;20052;-77
2023/05/30 08:53:14;;;;;;;8.20;4.65;;;;;;;;;;4991863;28;20050;-76
2023/05/30 08:55:43;;;;;;;6.20;4.10;;;;;;;;;;4991500;28;20589;-77
2023/05/30 08:58:15;;;;;;;9.80;4.75;;;;;;;;;;4991849;28;20046;-77
2023/05/30 09:00:44;;;;;;;7.72;5.05;;;;;;;;;;4991358;28;20133;-76
2023/05/30 09:03:12;;;;;;;7.25;4.50;;;;;;;;;;4991667;28;20642;-76
2023/05/30 09:05:41;;;;;;;9.25;4.90;;;;;;;;;;4990631;28;20690;-76
2023/05/30 09:08:10;;;;;;;18.23;5.25;;;;;;;;;;4991279;28;20153;-76
2023/05/30 09:10:41;;;;;;;9.57;4.68;;;;;;;;;;4992261;28;20425;-76
2023/05/30 09:13:07;;;;;;;9.55;4.95;;;;;;;;;;4986371;28;20047;-77
2023/05/30 09:15:34;;;;;;;11.32;4.82;;;;;;;;;;4972408;28;20046;-77
2023/05/30 09:18:02;;;;;;;22.50;5.45;;;;;;;;;;4975462;28;20046;-76
2023/05/30 09:20:31;;;;;;;11.45;4.95;;;;;;;;;;4991255;28;20482;-77
2023/05/30 09:22:58;;;;;;;7.35;4.28;;;;;;;;;;4991217;28;20517;-76
2023/05/30 09:25:25;;;;;;;11.20;5.25;;;;;;;;;;4989653;28;20077;-76
2023/05/30 09:27:54;;;;;;;6.63;4.40;;;;;;;;;;4982303;28;20042;-76
2023/05/30 09:30:21;;;;;;;6.03;3.80;;;;;;;;;;4972770;28;20039;-77
2023/05/30 09:33:01;;;;;;;8.07;4.70;;;;;;;;;;4980688;28;20045;-78
2023/05/30 09:35:27;;;;;;;6.32;4.22;;;;;;;;;;4992909;28;20133;-78
2023/05/30 09:37:54;;;;;;;11.25;5.10;;;;;;;;;;4992518;28;20039;-78
2023/05/30 09:40:23;;;;;;;13.45;5.05;;;;;;;;;;4984233;28;20051;-77
2023/05/30 09:42:50;;;;;;;8.77;5.07;;;;;;;;;;4991733;28;20062;-78
2023/05/30 09:45:21;;;;;;;6.93;4.18;;;;;;;;;;4982891;28;20097;-77
2023/05/30 09:47:50;;;;;;;7.20;4.60;;;;;;;;;;4991389;28;20046;-76
2023/05/30 09:50:18;;;;;;;6.85;4.05;;;;;;;;;;4991792;28;20061;-77
2023/05/30 09:52:48;;;;;;;7.53;4.43;;;;;;;;;;4986208;28;20069;-77
2023/05/30 09:55:17;;;;;;;8.95;4.45;;;;;;;;;;4980670;28;20038;-78
2023/05/30 09:57:47;;;;;;;8.40;4.18;;;;;;;;;;4993031;28;20106;-77
2023/05/30 10:00:16;;;;;;;6.75;3.97;;;;;;;;;;4991586;28;20053;-77
2023/05/30 10:02:45;;;;;;;6.03;3.90;;;;;;;;;;4988410;28;20053;-76
2023/05/30 10:05:19;;;;;;;7.72;4.22;;;;;;;;;;4979787;28;20093;-78
2023/05/30 10:07:47;;;;;;;5.57;3.70;;;;;;;;;;4993598;28;20204;-78
2023/05/30 10:10:14;;;;;;;8.10;4.22;;;;;;;;;;4979756;28;20043;-78
2023/05/30 10:12:42;;;;;;;7.85;4.45;;;;;;;;;;4974571;28;20069;-78
2023/05/30 10:15:10;;;;;;;6.93;3.83;;;;;;;;;;4982683;28;20057;-77
2023/05/30 10:17:42;;;;;;;7.97;3.85;;;;;;;;;;4976031;28;20134;-76
2023/05/30 10:20:14;;;;;;;7.00;3.75;;;;;;;;;;4975933;28;20043;-77
2023/05/30 10:22:44;;;;;;;6.00;3.55;;;;;;;;;;4974847;28;20070;-76
2023/05/30 10:25:12;;;;;;;5.70;3.75;;;;;;;;;;4975304;28;20051;-78
2023/05/30 10:27:43;;;;;;;5.85;3.53;;;;;;;;;;4973410;28;20078;-77
2023/05/30 10:30:13;;;;;;;6.78;3.42;;;;;;;;;;4980228;28;20105;-76
2023/05/30 10:32:43;;;;;;;7.38;4.00;;;;;;;;;;4980143;28;20047;-78
2023/05/30 10:35:15;;;;;;;6.90;3.58;;;;;;;;;;4967178;28;20110;-77
2023/05/30 10:37:43;;;;;;;9.02;4.07;;;;;;;;;;4971731;28;20078;-77
2023/05/30 10:40:22;;;;;;;7.15;3.92;;;;;;;;;;4975374;28;20045;-77
2023/05/30 10:42:58;;;;;;;6.53;3.65;;;;;;;;;;4972600;28;20131;-78
2023/05/30 10:45:32;;;;;;;7.07;3.42;;;;;;;;;;4992003;28;20050;-77
2023/05/30 10:48:11;;;;;;;7.20;3.85;;;;;;;;;;4972267;28;20047;-78
2023/05/30 10:50:42;;;;;;;6.15;3.63;;;;;;;;;;4972135;28;20051;-77
2023/05/30 10:53:14;;;;;;;6.35;3.47;;;;;;;;;;4974367;28;20674;-77
2023/05/30 10:55:42;;;;;;;7.05;4.00;;;;;;;;;;4973225;28;20101;-77
2023/05/30 10:58:36;;;;;;;7.15;3.72;;;;;;;;;;4971940;28;20146;-78
2023/05/30 11:01:24;;;;;;;6.85;3.63;;;;;;;;;;4976654;28;20055;-76
2023/05/30 11:03:56;;;;;;;6.65;3.92;;;;;;;;;;4980586;28;20053;-77
2023/05/30 11:06:26;;;;;;;5.97;4.05;;;;;;;;;;4989151;28;20074;-77
2023/05/30 11:08:54;;;;;;;8.38;4.68;;;;;;;;;;5007248;28;20065;-79
2023/05/30 11:11:21;;;;;;;5.47;3.85;;;;;;;;;;5004055;28;20042;-80
2023/05/30 11:13:49;;;;;;;7.22;4.43;;;;;;;;;;4998188;28;20077;-79
2023/05/30 11:16:23;;;;;;;9.95;5.75;;;;;;;;;;4992185;28;20074;-77
2023/05/30 11:18:51;;;;;;;9.95;4.25;;;;;;;;;;4993749;28;20063;-79
2023/05/30 11:21:55;;;;;;;9.57;5.07;;;;;;;;;;4979993;28;20047;-78
2023/05/30 11:24:24;;;;;;;8.32;4.35;;;;;;;;;;4973410;28;20057;-79
2023/05/30 11:26:58;;;;;;;7.20;4.45;;;;;;;;;;4972241;28;20051;-78
2023/05/30 11:29:37;;;;;;;5.78;3.75;;;;;;;;;;4971921;28;20601;-76
2023/05/30 11:32:08;;;;;;;8.25;4.50;;;;;;;;;;4973902;28;20052;-77
2023/05/30 11:34:34;;;;;;;8.52;4.25;;;;;;;;;;4993634;28;20051;-76
2023/05/30 11:37:02;;;;;;;8.68;4.30;;;;;;;;;;4998341;28;20050;-85
2023/05/30 11:39:32;;;;;;;8.20;4.38;;;;;;;;;;4996761;28;20133;-79
2023/05/30 11:42:00;;;;;;;;;;;;;;;;;;4991526;28;20053;-77
2023/05/30 11:44:26;;;;;;;8.80;4.60;;;;;;;;;;4982888;28;19926;-78
2023/05/30 11:47:03;;;;;;;7.78;4.38;;;;;;;;;;4980766;28;20039;-78
2023/05/30 11:49:31;;;;;;;8.68;4.45;;;;;;;;;;4972943;28;20047;-77
2023/05/30 11:51:58;;;;;;;7.40;4.03;;;;;;;;;;4972461;28;20050;-76
2023/05/30 11:54:26;;;;;;;8.73;3.80;;;;;;;;;;4973795;28;20058;-76
2023/05/30 11:56:55;;;;;;;7.22;4.50;;;;;;;;;;4974398;28;20042;-77
2023/05/30 11:59:23;;;;;;;7.10;4.18;;;;;;;;;;4974295;28;20145;-75
2023/05/30 12:01:54;;;;;;;8.90;4.38;;;;;;;;;;4974051;28;20126;-78
2023/05/30 12:04:22;;;;;;;6.57;3.92;;;;;;;;;;4955028;28;20099;-77
2023/05/30 12:06:49;;;;;;;8.15;3.90;;;;;;;;;;4954715;29;20506;-77
2023/05/30 12:09:16;;;;;;;8.38;4.50;;;;;;;;;;4954848;29;20495;-77
2023/05/30 12:11:54;;;;;;;6.70;4.20;;;;;;;;;;4969990;28;20098;-77
2023/05/30 12:14:21;;;;;;;6.55;4.03;;;;;;;;;;4979992;28;20043;-77
2023/05/30 12:16:56;;;;;;;7.32;4.65;;;;;;;;;;4995967;22;20083;-55
2023/05/30 12:19:28;;;;;;;6.45;3.80;;;;;;;;;;4991775;28;20062;-56
2023/05/30 12:21:55;;;;;;;8.85;4.45;;;;;;;;;;4991451;28;20050;-52
2023/05/30 12:24:23;;;;;;;8.95;3.88;;;;;;;;;;4976814;28;20452;-53
2023/05/30 12:26:50;;;;;;;5.57;3.78;;;;;;;;;;5011183;28;20046;-55
2023/05/30 12:29:18;;;;;;;7.22;4.45;;;;;;;;;;5004073;28;20488;-55
2023/05/30 12:31:48;;;;;;;6.10;3.97;;;;;;;;;;4991425;28;20128;-55
2023/05/30 12:34:15;;;;;;;8.73;4.13;;;;;;;;;;4990586;28;20558;-52
2023/05/30 12:36:41;;;;;;;8.52;5.28;;;;;;;;;;4991777;28;20062;-53
2023/05/30 12:39:08;;;;;;;6.57;4.30;;;;;;;;;;4990723;28;20116;-54
2023/05/30 12:41:40;;;;;;;6.95;4.47;;;;;;;;;;4993143;28;20054;-54
2023/05/30 12:44:07;;;;;;;7.47;4.18;;;;;;;;;;4985137;28;20093;-55
2023/05/30 12:46:38;;;;;;;8.77;4.15;;;;;;;;;;4991951;28;20050;-54
2023/05/30 12:49:05;;;;;;;6.82;4.22;;;;;;;;;;4980958;28;20090;-56
2023/05/30 12:51:33;;;;;;;9.70;4.60;;;;;;;;;;4972454;28;20050;-52
2023/05/30 12:54:00;;;;;;;6.70;4.38;;;;;;;;;;4972296;28;20381;-55
2023/05/30 12:56:28;;;;;;;7.15;4.85;;;;;;;;;;4972542;28;20063;-53
2023/05/30 12:58:55;;;;;;;8.55;5.10;;;;;;;;;;4973822;28;20054;-57
2023/05/30 13:01:22;;;;;;;7.13;4.75;;;;;;;;;;4990827;28;20318;-54
2023/05/30 13:03:50;;;;;;;8.35;5.38;;;;;;;;;;4979696;28;20262;-56
2023/05/30 13:06:17;;;;;;;6.85;4.60;;;;;;;;;;4978316;28;20093;-56
2023/05/30 13:08:44;;;;;;;7.00;4.25;;;;;;;;;;4985045;28;20691;-53
2023/05/30 13:11:11;;;;;;;7.35;4.20;;;;;;;;;;4978581;28;20047;-53
2023/05/30 13:13:38;;;;;;;7.78;3.97;;;;;;;;;;4971622;28;20069;-55
2023/05/30 13:16:05;;;;;;;7.80;3.83;;;;;;;;;;4971156;28;20117;-52
2023/05/30 13:18:32;;;;;;;7.15;4.00;;;;;;;;;;4975366;28;20612;-51
2023/05/30 13:21:00;;;;;;;6.78;4.30;;;;;;;;;;4974308;28;20082;-52
2023/05/30 13:23:27;;;;;;;7.10;3.70;;;;;;;;;;4977826;28;20093;-52
2023/05/30 13:25:53;;;;;;;7.72;3.90;;;;;;;;;;4989724;28;20046;-53
2023/05/30 13:28:20;;;;;;;6.50;3.97;;;;;;;;;;4987996;28;20078;-54
2023/05/30 13:30:47;;;;;;;9.10;3.92;;;;;;;;;;4998836;28;20081;-54
2023/05/30 13:33:14;;;;;;;9.70;4.57;;;;;;;;;;5010312;28;20046;-53
2023/05/30 13:35:40;;;;;;;7.53;4.00;;;;;;;;;;4988238;28;20153;-55
2023/05/30 13:38:09;;;;;;;6.10;3.88;;;;;;;;;;4980070;28;20057;-56
2023/05/30 13:40:36;;;;;;;6.53;3.85;;;;;;;;;;4984731;28;20094;-54
2023/05/30 13:43:02;;;;;;;5.88;4.00;;;;;;;;;;4989604;28;20092;-53
2023/05/30 13:45:29;;;;;;;5.97;3.97;;;;;;;;;;4988627;28;20483;-56
2023/05/30 13:47:56;;;;;;;5.93;3.97;;;;;;;;;;4990346;28;20373;-52
2023/05/30 13:50:23;;;;;;;10.73;4.70;;;;;;;;;;4990279;28;20460;-54
2023/05/30 13:52:50;;;;;;;7.45;4.10;;;;;;;;;;4981298;28;20050;-55
2023/05/30 13:55:18;;;;;;;6.47;3.85;;;;;;;;;;4989440;28;20076;-53
2023/05/30 13:57:45;;;;;;;6.32;3.80;;;;;;;;;;5009905;28;20092;-54
2023/05/30 14:00:13;;;;;;;6.85;4.55;;;;;;;;;;4999732;28;20368;-51
2023/05/30 14:02:40;;;;;;;9.27;4.55;;;;;;;;;;4984165;28;20089;-52
2023/05/30 14:05:07;;;;;;;7.47;4.47;;;;;;;;;;4990653;28;20626;-52
2023/05/30 14:07:34;;;;;;;5.90;3.97;;;;;;;;;;4995564;28;20336;-56
2023/05/30 14:10:01;;;;;;;6.63;4.15;;;;;;;;;;5009747;28;20054;-59
2023/05/30 14:12:29;;;;;;;5.72;4.10;;;;;;;;;;5009544;28;20046;-56
2023/05/30 14:14:59;;;;;;;6.78;3.80;;;;;;;;;;4979962;28;20082;-49
2023/05/30 14:17:26;;;;;;;6.93;3.50;;;;;;;;;;4978632;28;20054;-50
2023/05/30 14:19:53;;;;;;;5.88;3.97;;;;;;;;;;4975208;28;20496;-51
2023/05/30 14:22:20;;;;;;;9.30;3.92;;;;;;;;;;4974689;28;20054;-52
2023/05/30 14:24:47;;;;;;;9.55;4.00;;;;;;;;;;4972864;28;20081;-52
2023/05/30 14:27:13;;;;;;;6.28;3.92;;;;;;;;;;4974672;28;20046;-52
2023/05/30 14:29:41;;;;;;;6.32;3.85;;;;;;;;;;4976421;28;20046;-53
2023/05/30 14:32:08;;;;;;;5.97;4.28;;;;;;;;;;4984537;28;20133;-54
2023/05/30 14:34:35;;;;;;;6.05;4.03;;;;;;;;;;4977668;28;20047;-55
2023/05/30 14:37:02;;;;;;;6.70;3.70;;;;;;;;;;4971745;28;20059;-49
2023/05/30 14:39:29;;;;;;;7.53;3.60;;;;;;;;;;4977339;28;20104;-49
2023/05/30 14:41:56;;;;;;;7.35;3.88;;;;;;;;;;4973793;28;20050;-51
2023/05/30 14:44:23;;;;;;;6.13;4.00;;;;;;;;;;4972585;28;20049;-52
2023/05/30 14:46:52;;;;;;;5.43;3.80;;;;;;;;;;4981670;28;20527;-51
2023/05/30 14:49:20;;;;;;;6.37;3.73;;;;;;;;;;4975192;28;20117;-53